Amargosa Valley, Nevada Weather observations

Data are for observation ending at time listed.
 Day   Time    Ave.   Ave.  Ave.  Vector   Max.   Stn.    Total    Solar   Ave.  
  of    of     Air    Rel.  Wind   Wind    Wind   Baro.  Precip.   Rad.    Soil  
Year   Day     Temp.  Hum.  Speed  Dir.    Gust   Pres.                    Temp. 
2014   (PST)    F      %     mph   deg.    mph     mb.     in.     W/m2     F   
------------------------------------------------------------------------------
 110    4:00   60.0    34    3.3    42      4.9   929.6    0.00       0    75.5
 110    4:10   59.8    35    3.1    41      4.6   929.6    0.00       0    75.3
 110    4:20   60.3    35    2.5    53      4.7   929.5    0.00       0    75.3
 110    4:30   60.7    36    2.8    57      5.3   929.5    0.00       0    75.2
 110    4:40   60.6    36    3.1    38      5.6   929.6    0.00       0    75.1
 110    4:50   59.7    37    0.5   250      2.6   929.7    0.00       0    75.0
 110    5:00   58.9    38    1.4   155      2.7   929.7    0.00       0    74.9
 110    5:10   58.8    39    2.7   213      3.9   929.8    0.00       5    74.8
 110    5:20   58.7    38    0.9   239      2.5   930.0    0.00      11    74.8
 110    5:30   58.6    38    0.1   251      0.7   930.2    0.00      25    74.7
 110    5:40   58.2    38    1.8   313      3.3   930.4    0.00      38    74.6
 110    5:50   57.7    39    1.0   321      2.3   930.4    0.00      56    74.4
 110    6:00   58.7    37    0.9   321      2.7   930.7    0.00      86    74.4
 110    6:10   59.9    35    0.7   320      1.4   930.8    0.00     127    74.2
 110    6:20   60.2    34    1.8   310      4.2   931.1    0.00     162    74.1
 110    6:30   60.1    34    3.7   308      6.5   931.2    0.00     192    74.1
 110    6:40   60.4    34    5.5   309      7.2   931.3    0.00     217    74.0
 110    6:50   61.4    33    6.4   307      7.8   931.4    0.00     260    73.9
 110    7:00   63.3    32    4.7   308      7.5   931.5    0.00     302    73.8
 110    7:10   65.4    31    2.5   311      6.3   931.7    0.00     337    73.7
 110    7:20   67.9    29    1.2   309      3.3   931.8    0.00     377    73.6
 110    7:30   69.2    29    1.3   310      2.7   932.0    0.00     412    73.5
 110    7:40   70.2    28    3.1   307      7.2   932.2    0.00     441    73.5
 110    7:50   69.9    28    3.3   309      6.8   932.2    0.00     476    73.4
 110    8:00   70.7    28    3.2   303      6.2   932.3    0.00     507    73.3
 110    8:10   72.1    26    1.4   315      5.3   932.3    0.00     536    73.3
 110    8:20   72.8    26    2.1   306      6.8   932.4    0.00     569    73.2
 110    8:30   73.7    25    2.2   298      8.2   932.5    0.00     604    73.1
 110    8:40   73.7    25    2.5   302      8.5   932.6    0.00     632    73.1
 110    8:50   74.4    24    3.1   304      6.8   932.6    0.00     611    73.1
 110    9:00   74.9    24    2.7   309      7.0   932.6    0.00     632    73.0
 110    9:10   75.7    22    1.9   291      6.9   932.6    0.00     699    73.0
 110    9:20   77.3    21    1.2    16      3.9   932.7    0.00     729    73.0
 110    9:30   77.7    20    2.0   331      5.0   932.8    0.00     747    72.9
 110    9:40   78.3    20    2.6   311      6.7   932.9    0.00     756    72.9
 110    9:50   77.8    20    2.6   322      6.9   932.9    0.00     776    72.9
 110   10:00   79.1    19    2.0   285      5.8   932.8    0.00     823    72.9
 110   10:10   78.4    19    3.7   197      6.9   932.7    0.00     830    73.0
 110   10:20   79.7    18    2.7   246      5.8   932.6    0.00     776    73.0
 110   10:30   81.1    17    1.4   115      4.0   932.6    0.00     761    73.1
 110   10:40   81.1    17    3.2   310      6.9   932.6    0.00     778    73.1
 110   10:50   80.9    17    3.3   217      6.9   932.5    0.00     862    73.1
 110   11:00   81.9    16    1.5   201      4.4   932.4    0.00     904    73.2
 110   11:10   83.4    15    1.7   333      5.7   932.4    0.00     917    73.2
 110   11:20   82.3    15    3.5   316      8.1   932.3    0.00     925    73.3
 110   11:30   83.5    14    2.1   286      5.9   932.3    0.00     929    73.4
 110   11:40   83.3    14    2.2   275      6.3   932.2    0.00     934    73.4
 110   11:50   83.3    14    2.2   260      5.4   932.1    0.00     936    73.5
 110   12:00   84.4    13    3.3   158      7.5   931.9    0.00     923    73.6
 110   12:10   84.1    13    4.9   239      9.6   931.8    0.00     893    73.8
 110   12:20   83.8    13    5.9   210     11.4   931.7    0.00     884    73.9
 110   12:30   84.6    13    3.2   203      7.7   931.7    0.00     798    74.1
 110   12:40   85.0    13    4.1   220     10.4   931.6    0.00     802    74.3
 110   12:50   84.7    13    3.7   225      8.6   931.5    0.00     868    74.6
 110   13:00   85.0    13    3.8   159      9.9   931.4    0.00     893    74.8
 110   13:10   85.1    12    3.6   191      7.5   931.3    0.00     879    75.1
 110   13:20   86.2    12    2.4   220     20.7   931.1    0.00     862    75.4
 110   13:30   86.6    12    5.1   208     12.7   931.0    0.00     857    75.7
 110   13:40   86.1    12    6.8   182     12.4   930.9    0.00     839    76.0
 110   13:50   86.1    12    5.0   157     13.2   930.8    0.00     819    76.4
 110   14:00   86.3    12    6.8   200     13.4   930.6    0.00     803    76.7
 110   14:10   86.4    12    4.3   224     13.7   930.5    0.00     775    77.1
 110   14:20   85.7    12    5.8   211     12.1   930.4    0.00     751    77.4
 110   14:30   86.6    12    7.2   184     15.7   930.3    0.00     728    77.7
 110   14:40   86.2    12    5.0   187     12.8   930.2    0.00     700    78.1
 110   14:50   86.3    12    5.8   202     13.4   930.0    0.00     672    78.4
 110   15:00   86.1    13    4.6   197     11.0   929.9    0.00     643    78.7
 110   15:10   86.0    13    5.2   188     11.2   929.8    0.00     610    79.1
 110   15:20   85.9    13    2.0   312      7.6   929.8    0.00     255    79.3
 110   15:30   86.2    14    6.6   138     12.1   929.7    0.00      98    79.6
 110   15:40   85.7    14    5.0   188     10.4   929.6    0.00      79    79.9
 110   15:50   86.0    14    3.5   101      8.4   929.4    0.00      70    80.2
 110   16:00   86.2    13    2.3   211      9.0   929.3    0.00      66    80.4
 110   16:10   86.6    13    5.1   186     11.6   929.2    0.00      63    80.7
 110   16:20   85.9    14    5.7   180     11.6   929.1    0.00      61    80.8
 110   16:30   86.3    13    6.3   125     11.0   929.0    0.00      59    81.0
 110   16:40   86.4    13    8.1   162     17.3   928.9    0.00      81    81.1
 110   16:50   85.9    13    6.5   160     11.6   928.9    0.00      81    81.3
 110   17:00   85.9    13    5.9   173     10.8   928.9    0.00      50    81.4
 110   17:10   85.9    13    9.7   176     15.3   928.9    0.00      47    81.4
 110   17:20   85.7    13    8.8   167     14.2   928.8    0.00      44    81.5
 110   17:30   85.4    13    7.6   161     13.7   928.8    0.00      41    81.6
 110   17:40   85.1    13    9.9   165     14.9   928.8    0.00      47    81.6
 110   17:50   84.6    13    7.9   150     12.1   928.8    0.00      41    81.7
 110   18:00   84.4    13    8.8   153     11.7   928.8    0.00      25    81.7
 110   18:10   84.0    13    6.5   157      9.0   928.8    0.00      18    81.7
 110   18:20   83.4    13    9.0   164     14.0   928.8    0.00      12    81.7
 110   18:30   82.6    13    6.2   151      9.3   928.9    0.00       5    81.7
 110   18:40   81.7    14    5.7   146      7.6   928.9    0.00       1    81.7
 110   18:50   81.1    14    5.8   144      8.2   928.9    0.00       0    81.7
 110   19:00   80.3    14    5.9   151      8.3   929.0    0.00       0    81.7
 110   19:10   79.7    15    6.4   161      8.3   929.1    0.00       0    81.7
 110   19:20   79.1    16    6.1   154      8.3   929.1    0.00       0    81.6
 110   19:30   78.3    16    6.2   153      8.0   929.2    0.00       0    81.6
 110   19:40   77.8    16    5.6   158      7.7   929.3    0.00       0    81.5
 110   19:50   77.1    17    5.4   161      7.7   929.3    0.00       0    81.5
 110   20:00   76.7    17    4.9   164      6.9   929.4    0.00       0    81.4
 110   20:10   75.7    17    3.3   134      4.8   929.5    0.00       0    81.4
 110   20:20   74.9    18    4.0   116      6.5   929.5    0.00       0    81.3
 110   20:30   74.5    18    4.3   100      5.8   929.6    0.00       0    81.2
 110   20:40   74.4    18    4.4   100      6.1   929.8    0.00       0    81.2
 110   20:50   74.2    18    4.3   106      6.1   929.8    0.00       0    81.1
 110   21:00   74.0    18    4.2   109      5.6   929.8    0.00       0    81.1
 110   21:10   73.5    18    3.5   105      4.5   929.9    0.00       0    81.0
 110   21:20   73.5    18    3.7    95      4.7   929.8    0.00       0    80.9
 110   21:30   73.8    18    3.8    90      4.8   929.9    0.00       0    80.8
 110   21:40   73.4    18    4.5    90      5.7   929.8    0.00       0    80.7
 110   21:50   72.3    19    4.6    98      5.8   929.8    0.00       0    80.6
 110   22:00   71.5    19    4.1   109      5.6   929.7    0.00       0    80.5
 110   22:10   71.3    20    5.3   102      7.0   929.8    0.00       0    80.5
 110   22:20   71.2    20    5.1   108      6.5   929.9    0.00       0    80.4
 110   22:30   70.7    20    5.0   103      5.9   929.9    0.00       0    80.3
 110   22:40   71.2    19    5.8    98      7.1   929.9    0.00       0    80.2
 110   22:50   71.7    19    5.6    96      6.9   929.9    0.00       0    80.1
 110   23:00   71.8    19    5.2    92      6.6   929.9    0.00       0    80.0
 110   23:10   71.8    19    6.4    82      8.7   929.9    0.00       0    79.9
 110   23:20   71.3    19    6.9    82      8.8   929.9    0.00       0    79.8
 110   23:30   71.2    19    6.4    83      9.9   930.0    0.00       0    79.7
 110   23:40   70.8    20    5.6    97     10.1   930.1    0.00       0    79.6
 110   23:50   69.8    20    5.0    90      6.1   930.1    0.00       0    79.5
 111    0:00   69.5    20    5.5    84      6.9   930.1    0.00       0    79.4
 111    0:10   70.2    20    6.3    87      7.9   930.2    0.00       0    79.3
 111    0:20   69.3    20    5.9    91      7.6   930.2    0.00       0    79.2
 111    0:30   69.4    20    5.2    87      6.9   930.1    0.00       0    79.2
 111    0:40   69.2    20    3.9    75      6.4   930.1    0.00       0    79.1
 111    0:50   69.0    20    4.7    92      6.2   930.0    0.00       0    79.0
 111    1:00   68.5    21    3.5    93      5.2   929.9    0.00       0    78.9
 111    1:10   68.0    21    3.2    81      4.6   929.9    0.00       0    78.8
 111    1:20   64.6    22    1.1    17      3.8   929.9    0.00       0    78.7
 111    1:30   61.9    25    0.6    16      2.8   929.9    0.00       0    78.6
 111    1:40   62.1    25    0.7   344      3.0   929.9    0.00       0    78.6
 111    1:50   63.2    25    2.4    93      4.7   929.8    0.00       0    78.5
 111    2:00   65.6    23    4.0   116      6.8   929.8    0.00       0    78.3
 111    2:10   65.7    23    4.3    88      5.9   929.9    0.00       0    78.2
 111    2:20   65.8    23    4.2    96      6.6   929.9    0.00       0    78.2
 111    2:30   64.5    24    2.7   121      6.7   929.9    0.00       0    78.1
 111    2:40   64.5    24    2.9    92      4.2   929.9    0.00       0    78.0
 111    2:50   64.7    25    4.7    86      5.9   929.9    0.00       0    77.9
 111    3:00   65.2    24    5.1    88      6.1   929.9    0.00       0    77.8
 111    3:10   65.8    24    5.3    88      6.5   929.9    0.00       0    77.7
 111    3:20   65.1    25    3.2    74      5.6   929.9    0.00       0    77.6
 111    3:30   62.4    26    3.0    43      4.6   929.9    0.00       0    77.5
 111    3:40   60.4    27    2.6    26      4.7   929.9    0.00       0    77.4
 111    3:50   58.4    28    2.0    20      3.8   929.9    0.00       0    77.3

Return to Amargosa Valley, Nevada graphs page.


Western Regional Climate Center,wrcc@dri.edu